OSL weather

Oslo Gardermoen Airport
Oslo, Akershus, Norway

Public forecast

Using degrees Celsius for public forecast. Weather courtesy of forecast.io.

Current aviation weather report (METAR) for Oslo Gardermoen Airport

Retrieved 2019/11/19 16:20 UTC (37 minutes ago):

ENGM 191620Z 19007KT 9999 -RA FEW016 BKN020 03/02 Q1007 TEMPO 4000 -RA BR BKN008

Aviation forecast (TAF) for Oslo Gardermoen Airport

Retrieved 2019/11/19 12:57 UTC (4 hours ago):

TAF ENGM 191100Z 1912/2012 VRB05KT 4000 -RA BR SCT002 BKN005 TEMPO 1912/1924 0500 FG VV002 PROB40 2000/2012 0500 FZFG VV002